sensor_id;sensor_type;location;lat;lon;timestamp;P1;durP1;ratioP1;P2;durP2;ratioP2
75680;SDS011;64294;49.176;16.626;2022-12-20T00:01:22;61.83;;;21.63;;
75680;SDS011;64294;49.176;16.626;2022-12-20T00:03:50;62.20;;;21.65;;
75680;SDS011;64294;49.176;16.626;2022-12-20T00:06:17;54.13;;;19.98;;
75680;SDS011;64294;49.176;16.626;2022-12-20T00:08:43;61.65;;;22.63;;
75680;SDS011;64294;49.176;16.626;2022-12-20T00:11:09;57.15;;;22.15;;
75680;SDS011;64294;49.176;16.626;2022-12-20T00:13:35;65.70;;;22.67;;
75680;SDS011;64294;49.176;16.626;2022-12-20T00:18:30;63.10;;;22.50;;
75680;SDS011;64294;49.176;16.626;2022-12-20T00:21:02;62.15;;;21.35;;
75680;SDS011;64294;49.176;16.626;2022-12-20T00:23:29;64.05;;;22.60;;
75680;SDS011;64294;49.176;16.626;2022-12-20T00:26:05;59.33;;;22.48;;
75680;SDS011;64294;49.176;16.626;2022-12-20T00:28:32;56.70;;;21.38;;
75680;SDS011;64294;49.176;16.626;2022-12-20T00:30:58;61.00;;;22.67;;
75680;SDS011;64294;49.176;16.626;2022-12-20T00:33:23;63.10;;;22.10;;
75680;SDS011;64294;49.176;16.626;2022-12-20T00:35:49;62.15;;;21.80;;
75680;SDS011;64294;49.176;16.626;2022-12-20T00:38:15;60.35;;;22.55;;
75680;SDS011;64294;49.176;16.626;2022-12-20T00:40:40;62.55;;;20.98;;
75680;SDS011;64294;49.176;16.626;2022-12-20T00:43:05;55.17;;;20.85;;
75680;SDS011;64294;49.176;16.626;2022-12-20T00:45:31;66.40;;;22.45;;
75680;SDS011;64294;49.176;16.626;2022-12-20T00:47:56;59.05;;;22.45;;
75680;SDS011;64294;49.176;16.626;2022-12-20T00:50:21;63.53;;;22.52;;
75680;SDS011;64294;49.176;16.626;2022-12-20T00:52:47;58.20;;;21.75;;
75680;SDS011;64294;49.176;16.626;2022-12-20T00:55:12;56.78;;;22.08;;
75680;SDS011;64294;49.176;16.626;2022-12-20T00:57:37;58.95;;;21.60;;
75680;SDS011;64294;49.176;16.626;2022-12-20T01:00:03;61.60;;;22.50;;
75680;SDS011;64294;49.176;16.626;2022-12-20T01:02:29;58.42;;;22.17;;
75680;SDS011;64294;49.176;16.626;2022-12-20T01:04:54;57.25;;;21.65;;
75680;SDS011;64294;49.176;16.626;2022-12-20T01:07:19;54.40;;;21.13;;
75680;SDS011;64294;49.176;16.626;2022-12-20T01:09:47;60.22;;;21.40;;
75680;SDS011;64294;49.176;16.626;2022-12-20T01:12:12;64.03;;;23.40;;
75680;SDS011;64294;49.176;16.626;2022-12-20T01:14:38;60.90;;;22.45;;
75680;SDS011;64294;49.176;16.626;2022-12-20T01:17:03;64.57;;;22.25;;
75680;SDS011;64294;49.176;16.626;2022-12-20T01:19:28;66.68;;;22.65;;
75680;SDS011;64294;49.176;16.626;2022-12-20T01:21:54;67.18;;;23.27;;
75680;SDS011;64294;49.176;16.626;2022-12-20T01:24:19;68.32;;;24.20;;
75680;SDS011;64294;49.176;16.626;2022-12-20T01:26:45;63.58;;;23.65;;
75680;SDS011;64294;49.176;16.626;2022-12-20T01:29:10;68.10;;;25.23;;
75680;SDS011;64294;49.176;16.626;2022-12-20T01:31:36;63.45;;;23.05;;
75680;SDS011;64294;49.176;16.626;2022-12-20T01:34:02;66.40;;;24.83;;
75680;SDS011;64294;49.176;16.626;2022-12-20T01:36:29;66.43;;;24.08;;
75680;SDS011;64294;49.176;16.626;2022-12-20T01:39:01;64.25;;;25.13;;
75680;SDS011;64294;49.176;16.626;2022-12-20T01:41:29;67.70;;;24.42;;
75680;SDS011;64294;49.176;16.626;2022-12-20T01:43:57;70.57;;;24.83;;
75680;SDS011;64294;49.176;16.626;2022-12-20T01:46:28;72.03;;;24.67;;
75680;SDS011;64294;49.176;16.626;2022-12-20T01:51:59;65.97;;;24.52;;
75680;SDS011;64294;49.176;16.626;2022-12-20T01:54:29;67.93;;;25.13;;
75680;SDS011;64294;49.176;16.626;2022-12-20T01:57:03;67.13;;;23.45;;
75680;SDS011;64294;49.176;16.626;2022-12-20T01:59:35;73.88;;;25.33;;
75680;SDS011;64294;49.176;16.626;2022-12-20T02:02:04;68.43;;;25.25;;
75680;SDS011;64294;49.176;16.626;2022-12-20T02:04:33;69.45;;;24.88;;
75680;SDS011;64294;49.176;16.626;2022-12-20T02:06:59;76.90;;;24.40;;
75680;SDS011;64294;49.176;16.626;2022-12-20T02:09:25;69.18;;;23.42;;
75680;SDS011;64294;49.176;16.626;2022-12-20T02:22:40;66.82;;;23.55;;
75680;SDS011;64294;49.176;16.626;2022-12-20T02:30:57;67.57;;;25.10;;
75680;SDS011;64294;49.176;16.626;2022-12-20T02:33:27;66.97;;;24.42;;
75680;SDS011;64294;49.176;16.626;2022-12-20T02:35:53;68.97;;;25.02;;
75680;SDS011;64294;49.176;16.626;2022-12-20T02:38:32;69.30;;;24.48;;
75680;SDS011;64294;49.176;16.626;2022-12-20T02:41:01;67.28;;;23.95;;
75680;SDS011;64294;49.176;16.626;2022-12-20T02:43:27;66.25;;;24.65;;
75680;SDS011;64294;49.176;16.626;2022-12-20T02:46:13;68.78;;;24.48;;
75680;SDS011;64294;49.176;16.626;2022-12-20T02:48:40;65.65;;;23.33;;
75680;SDS011;64294;49.176;16.626;2022-12-20T02:51:09;71.63;;;24.90;;
75680;SDS011;64294;49.176;16.626;2022-12-20T02:53:35;67.38;;;23.58;;
75680;SDS011;64294;49.176;16.626;2022-12-20T03:01:40;63.17;;;22.55;;
75680;SDS011;64294;49.176;16.626;2022-12-20T03:04:11;66.45;;;23.90;;
75680;SDS011;64294;49.176;16.626;2022-12-20T03:06:38;69.05;;;24.55;;
75680;SDS011;64294;49.176;16.626;2022-12-20T03:09:04;71.07;;;25.02;;
75680;SDS011;64294;49.176;16.626;2022-12-20T03:11:29;64.90;;;23.70;;
75680;SDS011;64294;49.176;16.626;2022-12-20T03:13:55;72.82;;;26.35;;
75680;SDS011;64294;49.176;16.626;2022-12-20T03:16:20;65.95;;;25.55;;
75680;SDS011;64294;49.176;16.626;2022-12-20T03:18:45;74.97;;;25.77;;
75680;SDS011;64294;49.176;16.626;2022-12-20T03:21:12;70.50;;;25.30;;
75680;SDS011;64294;49.176;16.626;2022-12-20T03:23:37;69.43;;;25.17;;
75680;SDS011;64294;49.176;16.626;2022-12-20T03:26:03;65.18;;;24.80;;
75680;SDS011;64294;49.176;16.626;2022-12-20T03:28:28;68.43;;;25.75;;
75680;SDS011;64294;49.176;16.626;2022-12-20T03:30:53;68.30;;;25.15;;
75680;SDS011;64294;49.176;16.626;2022-12-20T03:33:19;65.93;;;24.58;;
75680;SDS011;64294;49.176;16.626;2022-12-20T03:35:45;67.75;;;24.40;;
75680;SDS011;64294;49.176;16.626;2022-12-20T03:38:11;73.53;;;25.70;;
75680;SDS011;64294;49.176;16.626;2022-12-20T03:40:36;67.78;;;24.40;;
75680;SDS011;64294;49.176;16.626;2022-12-20T03:43:02;67.50;;;23.67;;
75680;SDS011;64294;49.176;16.626;2022-12-20T03:45:27;67.45;;;25.42;;
75680;SDS011;64294;49.176;16.626;2022-12-20T03:47:52;71.15;;;25.45;;
75680;SDS011;64294;49.176;16.626;2022-12-20T03:50:18;63.88;;;24.42;;
75680;SDS011;64294;49.176;16.626;2022-12-20T03:52:43;65.40;;;24.20;;
75680;SDS011;64294;49.176;16.626;2022-12-20T03:55:09;75.82;;;26.05;;
75680;SDS011;64294;49.176;16.626;2022-12-20T03:57:36;73.68;;;26.83;;
75680;SDS011;64294;49.176;16.626;2022-12-20T04:00:02;67.60;;;23.52;;
75680;SDS011;64294;49.176;16.626;2022-12-20T04:02:28;71.82;;;24.48;;
75680;SDS011;64294;49.176;16.626;2022-12-20T04:04:53;61.22;;;23.55;;
75680;SDS011;64294;49.176;16.626;2022-12-20T04:07:18;69.97;;;24.92;;
75680;SDS011;64294;49.176;16.626;2022-12-20T04:09:44;68.95;;;23.83;;
75680;SDS011;64294;49.176;16.626;2022-12-20T04:12:09;66.70;;;25.08;;
75680;SDS011;64294;49.176;16.626;2022-12-20T04:14:34;68.93;;;24.35;;
75680;SDS011;64294;49.176;16.626;2022-12-20T04:17:01;73.03;;;25.50;;
75680;SDS011;64294;49.176;16.626;2022-12-20T04:19:27;67.88;;;23.83;;
75680;SDS011;64294;49.176;16.626;2022-12-20T04:21:52;76.35;;;26.08;;
75680;SDS011;64294;49.176;16.626;2022-12-20T04:24:19;72.78;;;25.95;;
75680;SDS011;64294;49.176;16.626;2022-12-20T04:26:45;77.43;;;27.10;;
75680;SDS011;64294;49.176;16.626;2022-12-20T04:29:10;73.00;;;25.92;;
75680;SDS011;64294;49.176;16.626;2022-12-20T04:31:35;76.30;;;26.65;;
75680;SDS011;64294;49.176;16.626;2022-12-20T04:34:01;73.90;;;25.55;;
75680;SDS011;64294;49.176;16.626;2022-12-20T04:36:26;69.88;;;25.75;;
75680;SDS011;64294;49.176;16.626;2022-12-20T04:38:52;79.05;;;27.10;;
75680;SDS011;64294;49.176;16.626;2022-12-20T04:41:18;76.50;;;26.70;;
75680;SDS011;64294;49.176;16.626;2022-12-20T04:43:49;67.18;;;25.92;;
75680;SDS011;64294;49.176;16.626;2022-12-20T04:46:16;71.07;;;25.33;;
75680;SDS011;64294;49.176;16.626;2022-12-20T04:48:42;69.53;;;26.48;;
75680;SDS011;64294;49.176;16.626;2022-12-20T04:51:08;78.78;;;26.25;;
75680;SDS011;64294;49.176;16.626;2022-12-20T04:53:33;59.90;;;23.42;;
75680;SDS011;64294;49.176;16.626;2022-12-20T04:58:49;73.07;;;24.48;;
75680;SDS011;64294;49.176;16.626;2022-12-20T05:01:16;78.10;;;26.48;;
75680;SDS011;64294;49.176;16.626;2022-12-20T05:03:42;66.13;;;26.20;;
75680;SDS011;64294;49.176;16.626;2022-12-20T05:06:07;70.10;;;25.42;;
75680;SDS011;64294;49.176;16.626;2022-12-20T05:08:34;70.22;;;24.77;;
75680;SDS011;64294;49.176;16.626;2022-12-20T05:11:00;75.18;;;26.13;;
75680;SDS011;64294;49.176;16.626;2022-12-20T05:13:25;71.43;;;24.35;;
75680;SDS011;64294;49.176;16.626;2022-12-20T05:15:51;68.72;;;25.08;;
75680;SDS011;64294;49.176;16.626;2022-12-20T05:18:18;71.57;;;24.42;;
75680;SDS011;64294;49.176;16.626;2022-12-20T05:20:43;75.93;;;26.13;;
75680;SDS011;64294;49.176;16.626;2022-12-20T05:23:09;77.80;;;25.35;;
75680;SDS011;64294;49.176;16.626;2022-12-20T05:25:54;67.68;;;23.95;;
75680;SDS011;64294;49.176;16.626;2022-12-20T05:28:38;75.45;;;26.38;;
75680;SDS011;64294;49.176;16.626;2022-12-20T05:31:03;74.90;;;25.98;;
75680;SDS011;64294;49.176;16.626;2022-12-20T05:33:29;84.10;;;23.90;;
75680;SDS011;64294;49.176;16.626;2022-12-20T05:35:54;82.47;;;26.20;;
75680;SDS011;64294;49.176;16.626;2022-12-20T05:38:20;70.90;;;26.13;;
75680;SDS011;64294;49.176;16.626;2022-12-20T05:40:47;83.28;;;25.63;;
75680;SDS011;64294;49.176;16.626;2022-12-20T05:43:13;82.45;;;25.20;;
75680;SDS011;64294;49.176;16.626;2022-12-20T05:45:39;78.80;;;25.33;;
75680;SDS011;64294;49.176;16.626;2022-12-20T05:48:08;80.57;;;24.95;;
75680;SDS011;64294;49.176;16.626;2022-12-20T05:50:34;84.35;;;26.48;;
75680;SDS011;64294;49.176;16.626;2022-12-20T05:52:59;81.45;;;23.77;;
75680;SDS011;64294;49.176;16.626;2022-12-20T05:55:24;83.50;;;25.50;;
75680;SDS011;64294;49.176;16.626;2022-12-20T05:57:50;80.40;;;23.92;;
75680;SDS011;64294;49.176;16.626;2022-12-20T06:00:15;76.25;;;24.48;;
75680;SDS011;64294;49.176;16.626;2022-12-20T06:02:41;83.25;;;27.80;;
75680;SDS011;64294;49.176;16.626;2022-12-20T06:05:06;85.05;;;27.23;;
75680;SDS011;64294;49.176;16.626;2022-12-20T06:07:32;73.50;;;24.25;;
75680;SDS011;64294;49.176;16.626;2022-12-20T06:09:57;86.20;;;25.17;;
75680;SDS011;64294;49.176;16.626;2022-12-20T06:12:23;74.78;;;23.50;;
75680;SDS011;64294;49.176;16.626;2022-12-20T06:14:49;90.78;;;27.25;;
75680;SDS011;64294;49.176;16.626;2022-12-20T06:17:14;82.13;;;25.65;;
75680;SDS011;64294;49.176;16.626;2022-12-20T06:19:40;95.20;;;28.13;;
75680;SDS011;64294;49.176;16.626;2022-12-20T06:22:05;83.03;;;27.33;;
75680;SDS011;64294;49.176;16.626;2022-12-20T06:24:32;84.72;;;26.08;;
75680;SDS011;64294;49.176;16.626;2022-12-20T06:27:02;85.40;;;26.67;;
75680;SDS011;64294;49.176;16.626;2022-12-20T06:29:28;92.35;;;26.42;;
75680;SDS011;64294;49.176;16.626;2022-12-20T06:31:53;73.18;;;24.02;;
75680;SDS011;64294;49.176;16.626;2022-12-20T06:34:19;78.80;;;25.83;;
75680;SDS011;64294;49.176;16.626;2022-12-20T06:36:45;84.40;;;24.67;;
75680;SDS011;64294;49.176;16.626;2022-12-20T06:39:11;76.80;;;25.42;;
75680;SDS011;64294;49.176;16.626;2022-12-20T06:41:36;78.15;;;23.70;;
75680;SDS011;64294;49.176;16.626;2022-12-20T06:44:03;77.82;;;24.98;;
75680;SDS011;64294;49.176;16.626;2022-12-20T06:46:28;68.50;;;24.00;;
75680;SDS011;64294;49.176;16.626;2022-12-20T06:48:57;84.95;;;25.05;;
75680;SDS011;64294;49.176;16.626;2022-12-20T06:51:22;74.53;;;24.40;;
75680;SDS011;64294;49.176;16.626;2022-12-20T06:53:48;84.72;;;24.63;;
75680;SDS011;64294;49.176;16.626;2022-12-20T06:56:13;72.97;;;24.95;;
75680;SDS011;64294;49.176;16.626;2022-12-20T06:58:39;77.32;;;24.77;;
75680;SDS011;64294;49.176;16.626;2022-12-20T07:01:04;76.63;;;24.27;;
75680;SDS011;64294;49.176;16.626;2022-12-20T07:03:30;84.53;;;23.67;;
75680;SDS011;64294;49.176;16.626;2022-12-20T07:05:55;82.75;;;24.95;;
75680;SDS011;64294;49.176;16.626;2022-12-20T07:08:21;59.03;;;19.88;;
75680;SDS011;64294;49.176;16.626;2022-12-20T07:10:47;85.03;;;26.60;;
75680;SDS011;64294;49.176;16.626;2022-12-20T07:13:13;79.65;;;26.40;;
75680;SDS011;64294;49.176;16.626;2022-12-20T07:15:38;81.57;;;26.08;;
75680;SDS011;64294;49.176;16.626;2022-12-20T07:18:04;85.63;;;25.88;;
75680;SDS011;64294;49.176;16.626;2022-12-20T07:20:30;84.78;;;25.80;;
75680;SDS011;64294;49.176;16.626;2022-12-20T07:22:56;86.78;;;28.27;;
75680;SDS011;64294;49.176;16.626;2022-12-20T07:25:22;79.70;;;25.83;;
75680;SDS011;64294;49.176;16.626;2022-12-20T07:27:48;79.90;;;25.58;;
75680;SDS011;64294;49.176;16.626;2022-12-20T07:30:14;77.85;;;25.52;;
75680;SDS011;64294;49.176;16.626;2022-12-20T07:32:40;75.45;;;25.00;;
75680;SDS011;64294;49.176;16.626;2022-12-20T07:35:08;76.53;;;23.92;;
75680;SDS011;64294;49.176;16.626;2022-12-20T07:37:34;77.97;;;24.17;;
75680;SDS011;64294;49.176;16.626;2022-12-20T07:40:00;83.25;;;25.05;;
75680;SDS011;64294;49.176;16.626;2022-12-20T07:42:25;79.30;;;26.55;;
75680;SDS011;64294;49.176;16.626;2022-12-20T07:44:50;82.55;;;25.60;;
75680;SDS011;64294;49.176;16.626;2022-12-20T07:47:15;80.80;;;26.30;;
75680;SDS011;64294;49.176;16.626;2022-12-20T07:49:41;86.72;;;26.48;;
75680;SDS011;64294;49.176;16.626;2022-12-20T07:52:06;75.97;;;23.83;;
75680;SDS011;64294;49.176;16.626;2022-12-20T07:54:57;86.18;;;28.10;;
75680;SDS011;64294;49.176;16.626;2022-12-20T07:57:25;88.07;;;25.45;;
75680;SDS011;64294;49.176;16.626;2022-12-20T07:59:59;80.25;;;25.17;;
75680;SDS011;64294;49.176;16.626;2022-12-20T08:02:27;77.65;;;25.83;;
75680;SDS011;64294;49.176;16.626;2022-12-20T08:04:57;84.43;;;22.85;;
75680;SDS011;64294;49.176;16.626;2022-12-20T08:07:23;82.65;;;24.60;;
75680;SDS011;64294;49.176;16.626;2022-12-20T08:09:50;95.53;;;26.85;;
75680;SDS011;64294;49.176;16.626;2022-12-20T08:12:16;89.78;;;30.05;;
75680;SDS011;64294;49.176;16.626;2022-12-20T08:14:43;76.72;;;23.58;;
75680;SDS011;64294;49.176;16.626;2022-12-20T08:17:09;80.38;;;25.17;;
75680;SDS011;64294;49.176;16.626;2022-12-20T08:19:35;75.10;;;24.83;;
75680;SDS011;64294;49.176;16.626;2022-12-20T08:22:01;77.57;;;24.92;;
75680;SDS011;64294;49.176;16.626;2022-12-20T08:24:26;76.60;;;25.42;;
75680;SDS011;64294;49.176;16.626;2022-12-20T08:26:52;78.38;;;27.40;;
75680;SDS011;64294;49.176;16.626;2022-12-20T08:29:17;73.72;;;26.33;;
75680;SDS011;64294;49.176;16.626;2022-12-20T08:31:43;70.55;;;23.05;;
75680;SDS011;64294;49.176;16.626;2022-12-20T08:34:08;74.60;;;23.73;;
75680;SDS011;64294;49.176;16.626;2022-12-20T08:36:33;77.25;;;25.92;;
75680;SDS011;64294;49.176;16.626;2022-12-20T08:39:02;64.88;;;23.83;;
75680;SDS011;64294;49.176;16.626;2022-12-20T08:41:29;66.88;;;24.33;;
75680;SDS011;64294;49.176;16.626;2022-12-20T08:43:54;62.75;;;22.73;;
75680;SDS011;64294;49.176;16.626;2022-12-20T08:46:20;78.57;;;22.70;;
75680;SDS011;64294;49.176;16.626;2022-12-20T08:48:45;74.55;;;25.08;;
75680;SDS011;64294;49.176;16.626;2022-12-20T08:51:10;71.22;;;24.60;;
75680;SDS011;64294;49.176;16.626;2022-12-20T08:53:36;71.25;;;24.42;;
75680;SDS011;64294;49.176;16.626;2022-12-20T08:56:03;70.43;;;24.13;;
75680;SDS011;64294;49.176;16.626;2022-12-20T08:58:34;71.13;;;25.65;;
75680;SDS011;64294;49.176;16.626;2022-12-20T09:01:00;77.68;;;25.92;;
75680;SDS011;64294;49.176;16.626;2022-12-20T09:03:28;72.30;;;26.27;;
75680;SDS011;64294;49.176;16.626;2022-12-20T09:05:55;67.97;;;25.15;;
75680;SDS011;64294;49.176;16.626;2022-12-20T09:08:20;75.97;;;25.20;;
75680;SDS011;64294;49.176;16.626;2022-12-20T09:10:46;78.95;;;27.13;;
75680;SDS011;64294;49.176;16.626;2022-12-20T09:13:11;67.22;;;25.92;;
75680;SDS011;64294;49.176;16.626;2022-12-20T09:15:36;72.88;;;24.33;;
75680;SDS011;64294;49.176;16.626;2022-12-20T09:18:02;66.80;;;23.23;;
75680;SDS011;64294;49.176;16.626;2022-12-20T09:20:28;58.70;;;21.83;;
75680;SDS011;64294;49.176;16.626;2022-12-20T09:22:54;68.35;;;25.30;;
75680;SDS011;64294;49.176;16.626;2022-12-20T09:25:19;64.80;;;23.30;;
75680;SDS011;64294;49.176;16.626;2022-12-20T09:27:44;59.63;;;24.17;;
75680;SDS011;64294;49.176;16.626;2022-12-20T09:30:10;70.70;;;24.42;;
75680;SDS011;64294;49.176;16.626;2022-12-20T09:32:35;60.10;;;23.13;;
75680;SDS011;64294;49.176;16.626;2022-12-20T09:35:01;66.50;;;23.92;;
75680;SDS011;64294;49.176;16.626;2022-12-20T09:37:30;60.75;;;23.02;;
75680;SDS011;64294;49.176;16.626;2022-12-20T09:39:56;77.13;;;25.15;;
75680;SDS011;64294;49.176;16.626;2022-12-20T09:42:26;68.45;;;23.05;;
75680;SDS011;64294;49.176;16.626;2022-12-20T09:44:56;78.80;;;25.63;;
75680;SDS011;64294;49.176;16.626;2022-12-20T09:49:54;71.95;;;24.17;;
75680;SDS011;64294;49.176;16.626;2022-12-20T09:52:43;65.72;;;23.98;;
75680;SDS011;64294;49.176;16.626;2022-12-20T09:56:04;69.05;;;22.42;;
75680;SDS011;64294;49.176;16.626;2022-12-20T10:01:46;80.20;;;25.08;;
75680;SDS011;64294;49.176;16.626;2022-12-20T10:17:58;73.20;;;21.70;;
75680;SDS011;64294;49.176;16.626;2022-12-20T10:23:39;67.20;;;23.20;;
75680;SDS011;64294;49.176;16.626;2022-12-20T10:26:10;62.53;;;23.35;;
75680;SDS011;64294;49.176;16.626;2022-12-20T10:28:37;67.57;;;22.55;;
75680;SDS011;64294;49.176;16.626;2022-12-20T10:31:12;61.80;;;21.50;;
75680;SDS011;64294;49.176;16.626;2022-12-20T10:33:40;67.65;;;23.33;;
75680;SDS011;64294;49.176;16.626;2022-12-20T10:39:04;54.78;;;20.17;;
75680;SDS011;64294;49.176;16.626;2022-12-20T10:46:49;59.65;;;21.73;;
75680;SDS011;64294;49.176;16.626;2022-12-20T10:49:28;61.22;;;21.67;;
75680;SDS011;64294;49.176;16.626;2022-12-20T10:51:55;61.80;;;21.55;;
75680;SDS011;64294;49.176;16.626;2022-12-20T10:54:35;65.15;;;22.83;;
75680;SDS011;64294;49.176;16.626;2022-12-20T10:57:12;58.53;;;22.27;;
75680;SDS011;64294;49.176;16.626;2022-12-20T10:59:41;68.88;;;24.13;;
75680;SDS011;64294;49.176;16.626;2022-12-20T11:07:34;69.80;;;24.50;;
75680;SDS011;64294;49.176;16.626;2022-12-20T11:10:23;64.63;;;22.65;;
75680;SDS011;64294;49.176;16.626;2022-12-20T11:12:55;64.88;;;22.55;;
75680;SDS011;64294;49.176;16.626;2022-12-20T11:15:23;64.47;;;20.50;;
75680;SDS011;64294;49.176;16.626;2022-12-20T11:18:04;72.30;;;22.60;;
75680;SDS011;64294;49.176;16.626;2022-12-20T11:23:25;62.67;;;21.42;;
75680;SDS011;64294;49.176;16.626;2022-12-20T11:36:40;60.15;;;19.88;;
75680;SDS011;64294;49.176;16.626;2022-12-20T11:42:17;67.70;;;21.23;;
75680;SDS011;64294;49.176;16.626;2022-12-20T11:47:17;65.40;;;22.35;;
75680;SDS011;64294;49.176;16.626;2022-12-20T11:55:26;60.35;;;22.73;;
75680;SDS011;64294;49.176;16.626;2022-12-20T12:00:55;72.03;;;20.67;;
75680;SDS011;64294;49.176;16.626;2022-12-20T12:03:29;53.15;;;18.25;;
75680;SDS011;64294;49.176;16.626;2022-12-20T12:06:21;62.67;;;20.27;;
75680;SDS011;64294;49.176;16.626;2022-12-20T12:11:18;47.45;;;17.35;;
75680;SDS011;64294;49.176;16.626;2022-12-20T12:13:48;63.60;;;21.88;;
75680;SDS011;64294;49.176;16.626;2022-12-20T12:16:28;62.28;;;22.55;;
75680;SDS011;64294;49.176;16.626;2022-12-20T12:18:58;70.72;;;20.85;;
75680;SDS011;64294;49.176;16.626;2022-12-20T12:21:26;75.13;;;21.95;;
75680;SDS011;64294;49.176;16.626;2022-12-20T12:26:47;68.60;;;19.42;;
75680;SDS011;64294;49.176;16.626;2022-12-20T12:29:16;60.92;;;21.52;;
75680;SDS011;64294;49.176;16.626;2022-12-20T12:45:42;50.10;;;19.20;;
75680;SDS011;64294;49.176;16.626;2022-12-20T12:50:49;54.00;;;19.75;;
75680;SDS011;64294;49.176;16.626;2022-12-20T13:09:59;53.35;;;19.55;;
75680;SDS011;64294;49.176;16.626;2022-12-20T13:18:28;54.83;;;19.55;;
75680;SDS011;64294;49.176;16.626;2022-12-20T13:20:37;54.88;;;19.60;;
75680;SDS011;64294;49.176;16.626;2022-12-20T13:25:32;58.90;;;20.27;;
75680;SDS011;64294;49.176;16.626;2022-12-20T13:33:39;54.47;;;19.98;;
75680;SDS011;64294;49.176;16.626;2022-12-20T13:43:42;52.53;;;18.80;;
75680;SDS011;64294;49.176;16.626;2022-12-20T13:48:41;59.15;;;20.73;;
75680;SDS011;64294;49.176;16.626;2022-12-20T13:51:15;48.20;;;19.98;;
75680;SDS011;64294;49.176;16.626;2022-12-20T13:54:17;61.85;;;22.50;;
75680;SDS011;64294;49.176;16.626;2022-12-20T14:01:59;56.90;;;19.85;;
75680;SDS011;64294;49.176;16.626;2022-12-20T14:04:40;69.57;;;22.35;;
75680;SDS011;64294;49.176;16.626;2022-12-20T14:07:12;69.47;;;25.02;;
75680;SDS011;64294;49.176;16.626;2022-12-20T14:09:42;75.93;;;26.38;;
75680;SDS011;64294;49.176;16.626;2022-12-20T14:12:13;61.05;;;21.77;;
75680;SDS011;64294;49.176;16.626;2022-12-20T14:14:47;69.68;;;22.40;;
75680;SDS011;64294;49.176;16.626;2022-12-20T14:17:27;60.70;;;22.05;;
75680;SDS011;64294;49.176;16.626;2022-12-20T14:20:04;59.97;;;22.50;;
75680;SDS011;64294;49.176;16.626;2022-12-20T14:22:33;63.95;;;22.05;;
75680;SDS011;64294;49.176;16.626;2022-12-20T14:25:00;64.00;;;20.75;;
75680;SDS011;64294;49.176;16.626;2022-12-20T14:27:29;60.53;;;22.75;;
75680;SDS011;64294;49.176;16.626;2022-12-20T14:29:59;54.38;;;19.90;;
75680;SDS011;64294;49.176;16.626;2022-12-20T14:32:25;67.78;;;22.88;;
75680;SDS011;64294;49.176;16.626;2022-12-20T14:34:50;56.65;;;21.08;;
75680;SDS011;64294;49.176;16.626;2022-12-20T14:37:33;68.60;;;23.60;;
75680;SDS011;64294;49.176;16.626;2022-12-20T14:42:35;74.97;;;23.13;;
75680;SDS011;64294;49.176;16.626;2022-12-20T14:45:03;69.07;;;21.27;;
75680;SDS011;64294;49.176;16.626;2022-12-20T14:47:29;60.00;;;22.92;;
75680;SDS011;64294;49.176;16.626;2022-12-20T14:49:59;60.60;;;21.02;;
75680;SDS011;64294;49.176;16.626;2022-12-20T14:52:34;55.25;;;20.33;;
75680;SDS011;64294;49.176;16.626;2022-12-20T14:55:05;55.15;;;19.17;;
75680;SDS011;64294;49.176;16.626;2022-12-20T15:10:37;60.92;;;21.17;;
75680;SDS011;64294;49.176;16.626;2022-12-20T15:13:08;63.60;;;20.65;;
75680;SDS011;64294;49.176;16.626;2022-12-20T15:15:37;60.03;;;21.48;;
75680;SDS011;64294;49.176;16.626;2022-12-20T15:18:07;51.42;;;20.65;;
75680;SDS011;64294;49.176;16.626;2022-12-20T15:20:43;64.20;;;22.10;;
75680;SDS011;64294;49.176;16.626;2022-12-20T15:23:17;64.13;;;22.63;;
75680;SDS011;64294;49.176;16.626;2022-12-20T15:25:45;66.18;;;21.67;;
75680;SDS011;64294;49.176;16.626;2022-12-20T15:28:21;58.42;;;21.65;;
75680;SDS011;64294;49.176;16.626;2022-12-20T15:30:49;60.47;;;20.80;;
75680;SDS011;64294;49.176;16.626;2022-12-20T15:33:16;67.25;;;22.58;;
75680;SDS011;64294;49.176;16.626;2022-12-20T15:35:47;62.97;;;21.42;;
75680;SDS011;64294;49.176;16.626;2022-12-20T15:38:13;59.22;;;20.55;;
75680;SDS011;64294;49.176;16.626;2022-12-20T15:40:41;61.50;;;21.85;;
75680;SDS011;64294;49.176;16.626;2022-12-20T15:43:11;61.15;;;21.85;;
75680;SDS011;64294;49.176;16.626;2022-12-20T15:45:38;60.47;;;22.60;;
75680;SDS011;64294;49.176;16.626;2022-12-20T15:48:07;66.30;;;21.13;;
75680;SDS011;64294;49.176;16.626;2022-12-20T15:50:37;56.30;;;21.48;;
75680;SDS011;64294;49.176;16.626;2022-12-20T15:53:04;61.65;;;21.98;;
75680;SDS011;64294;49.176;16.626;2022-12-20T15:55:33;68.10;;;23.52;;
75680;SDS011;64294;49.176;16.626;2022-12-20T15:57:58;59.97;;;22.38;;
75680;SDS011;64294;49.176;16.626;2022-12-20T16:00:23;60.88;;;22.40;;
75680;SDS011;64294;49.176;16.626;2022-12-20T16:02:50;62.95;;;22.75;;
75680;SDS011;64294;49.176;16.626;2022-12-20T16:05:15;73.45;;;23.92;;
75680;SDS011;64294;49.176;16.626;2022-12-20T16:07:40;65.63;;;24.77;;
75680;SDS011;64294;49.176;16.626;2022-12-20T16:10:06;61.97;;;23.10;;
75680;SDS011;64294;49.176;16.626;2022-12-20T16:12:32;61.22;;;22.42;;
75680;SDS011;64294;49.176;16.626;2022-12-20T16:14:59;59.83;;;20.67;;
75680;SDS011;64294;49.176;16.626;2022-12-20T16:17:24;59.30;;;22.83;;
75680;SDS011;64294;49.176;16.626;2022-12-20T16:19:50;63.70;;;21.55;;
75680;SDS011;64294;49.176;16.626;2022-12-20T16:22:16;58.97;;;22.27;;
75680;SDS011;64294;49.176;16.626;2022-12-20T16:24:44;68.22;;;23.35;;
75680;SDS011;64294;49.176;16.626;2022-12-20T16:27:10;58.28;;;21.58;;
75680;SDS011;64294;49.176;16.626;2022-12-20T16:29:35;57.85;;;22.25;;
75680;SDS011;64294;49.176;16.626;2022-12-20T16:32:00;55.67;;;21.05;;
75680;SDS011;64294;49.176;16.626;2022-12-20T16:34:26;58.90;;;21.92;;
75680;SDS011;64294;49.176;16.626;2022-12-20T16:36:51;56.63;;;22.20;;
75680;SDS011;64294;49.176;16.626;2022-12-20T16:39:17;61.97;;;22.58;;
75680;SDS011;64294;49.176;16.626;2022-12-20T16:41:42;59.55;;;21.35;;
75680;SDS011;64294;49.176;16.626;2022-12-20T16:44:12;54.60;;;21.20;;
75680;SDS011;64294;49.176;16.626;2022-12-20T16:46:39;57.83;;;22.10;;
75680;SDS011;64294;49.176;16.626;2022-12-20T16:49:05;57.05;;;21.25;;
75680;SDS011;64294;49.176;16.626;2022-12-20T16:51:53;59.20;;;22.92;;
75680;SDS011;64294;49.176;16.626;2022-12-20T16:54:21;63.38;;;23.08;;
75680;SDS011;64294;49.176;16.626;2022-12-20T16:56:47;63.75;;;22.63;;
75680;SDS011;64294;49.176;16.626;2022-12-20T16:59:15;66.85;;;24.58;;
75680;SDS011;64294;49.176;16.626;2022-12-20T17:01:41;68.38;;;25.63;;
75680;SDS011;64294;49.176;16.626;2022-12-20T17:04:12;61.97;;;22.70;;
75680;SDS011;64294;49.176;16.626;2022-12-20T17:06:39;77.65;;;25.95;;
75680;SDS011;64294;49.176;16.626;2022-12-20T17:09:06;61.95;;;23.88;;
75680;SDS011;64294;49.176;16.626;2022-12-20T17:11:32;64.57;;;22.63;;